METAR AND TAF INFORMATION
METAR FOR LEGR
ADDS - METARS form results

(1416 UTC 19 February 2018)
Data provider http://aviationweather.gov/adds/metars/
 
METAR text: LEGR 191400Z 00000KT 9999 FEW030 FEW034TCU 16/06 Q1016
Conditions at: LEGR (GRANADA AIRPORT , ES) observed 1400 UTC 19 February 2018
Temperature: 16.0°C (61°F)
Dewpoint: 6.0°C (43°F) [RH = 51%]
Pressure (altimeter): 30.00 inches Hg (1016.0 mb)
Winds: calm
Visibility: 6 or more miles (10+ km)
Ceiling: at least 12,000 feet AGL
Clouds: few clouds at 3000 feet AGL
few clouds at 3400 feet AGL
Weather: no significant weather observed at this time

METAR text: LEGR 191330Z VRB02KT 9999 FEW030TCU SCT040 13/06 Q1016
Conditions at: LEGR (GRANADA AIRPORT , ES) observed 1330 UTC 19 February 2018
Temperature: 13.0°C (55°F)
Dewpoint: 6.0°C (43°F) [RH = 62%]
Pressure (altimeter): 30.00 inches Hg (1016.0 mb)
Winds: variable direction winds at 2 MPH (2 knots; 1.0 m/s)
Visibility: 6 or more miles (10+ km)
Ceiling: at least 12,000 feet AGL
Clouds: few clouds at 3000 feet AGL
scattered clouds at 4000 feet AGL
Weather: no significant weather observed at this time

Forecast for: LEGR (GRANADA AIRPORT , ES)
Text: TAF LEGR 190800Z 1909/2009 VRB03KT 9999 FEW050 TX17/1914Z TN03/2007Z
Forecast period: 0900 UTC 19 February 2018 to 0900 UTC 20 February 2018
Forecast type: FROM: standard forecast or significant change
Winds: variable direction winds at 3 MPH (3 knots; 1.6 m/s)
Visibility: 6 or more miles (10+ km)
Clouds: few clouds at 5000 feet AGL
Weather: no significant weather forecast for this period

 AIRPORT MAP

 RUNWAY INFORMATION
Runway 09 Runway length 9514 ft Runway width 148 ft
Runway elevation 1842 ft Runway displaced threshold 0 ft Runway heading 90
Runway 27 Runway length 9514 ft Runway width 148 ft
Runway elevation 1860 ft Runway displaced threshold 0 ft Runway heading 270

 AIRPORT FREQUENCIES
Type GND Name GND Frequency 121.7 MHZ
Type TWR Name TWR Frequency 118.85 MHZ

 AIRPORT NEAR NAVIGATION AIDS
Type VOR-DME Name Granada Frequency 113400 KHZ



Powered by Virtual Airlines Manager [v2.6.2]